LPMA

Details ICAO LPMA (FNC)
Name Madeira/Funchal - Cristiano Ronaldo
Region Portugal
Timezone Atlantic/Madeira (UTC+0.0)
Plans Departing 1588
Arriving 2596
Stats Elevation 189 ft / 58 m (AMSL)
Location 32.697900° -16.774400°
Runways 1
Magnetic Variation 4.835° W
Sunrise 2019-02-21 07:45:56 UTC / 2019-02-21 07:45:56 Local
Sunset 2019-02-21 18:58:31 UTC / 2019-02-21 18:58:31 Local
Advertisement - Login to hide

Runways

ID Width Length Bearing (true/mag) Surface Threshold Overrun Markings Lighting
05 148 ft / 45 m 9,133 ft / 2,784 m 44.60° / 49.43° ASPHALT 482 ft / 147 m 0 ft / 0 m PREC-APP CENTERLINE EDGE THRESHOLD TDZ REIL-OMNI
23 148 ft / 45 m 9,133 ft / 2,784 m 224.61° / 229.44° ASPHALT 482 ft / 147 m 0 ft / 0 m PREC-APP CENTERLINE EDGE THRESHOLD TDZ REIL-OMNI

Map

Weather


0- 5 10 15 20 25 30 35+ Temperature / °C

Clouds and Precipitation
Forecast for 2019-02-21 18:00 UTC. Updated 26 minutes ago

Ground ~20,000 ft ~40,000 ft Winds

METAR

LPMA 211600Z 21021KT 9999 FEW016 18/12 Q1018

TAF

TAF LPMA 211100Z 2112/2212 22020KT 9999 SCT015 SCT030 TEMPO 2112/2212 21025G35KT

Frequencies

Approach 119.20 MHz
Tower 118.35 MHz
Recorded 124.40 MHz ATIS
Approach 119.60 MHz
Warning: Do not use this data for real-world aviation or navigation. No guarantee of current accuracy is given.